Time;durP1;ratioP1;P1;durP2;ratioP2;P2;SDS_P1;SDS_P2;PMS_P1;PMS_P2;Temp;Humidity;BMP_temperature;BMP_pressure;BME280_temperature;BME280_humidity;BME280_pressure;Samples;Min_cycle;Max_cycle;Signal;HPM_P1;HPM_P2
2023/12/14 00:01:31;;;;;;;1.93;1.03;;;;;;;6.55;100.00;147818.47;4955374;28;20241;-59
2023/12/14 00:03:57;;;;;;;5.83;1.20;;;;;;;6.56;100.00;147820.97;4957274;28;20701;-60
2023/12/14 00:06:24;;;;;;;3.60;1.40;;;;;;;6.57;100.00;147822.22;4953843;28;20630;-60
2023/12/14 00:08:52;;;;;;;1.50;1.00;;;;;;;6.54;100.00;147816.00;4957964;28;20222;-60
2023/12/14 00:11:18;;;;;;;2.03;0.97;;;;;;;6.53;100.00;147812.28;4944778;28;20250;-59
2023/12/14 00:13:45;;;;;;;1.40;1.07;;;;;;;6.57;100.00;147822.22;4954422;28;20238;-60
2023/12/14 00:16:11;;;;;;;1.60;1.03;;;;;;;6.57;100.00;147823.47;4954130;28;20226;-60
2023/12/14 00:18:38;;;;;;;2.17;1.20;;;;;;;6.58;100.00;147825.94;4957190;28;20249;-59
2023/12/14 00:21:05;;;;;;;1.43;0.90;;;;;;;6.58;100.00;147825.94;4954911;28;20582;-59
2023/12/14 00:23:32;;;;;;;1.00;0.90;;;;;;;6.57;100.00;147823.47;4953602;28;20326;-59
2023/12/14 00:26:00;;;;;;;1.63;0.90;;;;;;;6.62;100.00;147834.66;4964678;28;20646;-60
2023/12/14 00:28:52;;;;;;;1.47;0.83;;;;;;;6.60;100.00;147829.69;4961535;28;20210;-60
2023/12/14 00:31:44;;;;;;;3.33;0.87;;;;;;;6.61;100.00;147833.38;4964420;28;20313;-60
2023/12/14 00:34:36;;;;;;;0.83;0.53;;;;;;;6.63;100.00;147838.34;4958344;28;20205;-60
2023/12/14 00:37:28;;;;;;;1.47;0.67;;;;;;;6.62;100.00;147834.66;4962056;28;20205;-58
2023/12/14 00:40:20;;;;;;;0.63;0.40;;;;;;;6.65;100.00;147842.09;4972196;28;20284;-59
2023/12/14 00:43:13;;;;;;;0.83;0.53;;;;;;;6.66;100.00;147844.59;4981513;28;20217;-60
2023/12/14 00:46:05;;;;;;;2.10;0.40;;;;;;;6.63;100.00;147838.34;4980210;28;20536;-60
2023/12/14 00:48:57;;;;;;;1.63;0.50;;;;;;;6.63;100.00;147837.13;4981324;28;20588;-59
2023/12/14 00:51:24;;;;;;;0.97;0.40;;;;;;;6.62;100.00;147835.88;4976452;28;20234;-59
2023/12/14 00:53:50;;;;;;;1.20;0.50;;;;;;;6.65;100.00;147842.09;4972576;28;20233;-59
2023/12/14 00:56:17;;;;;;;1.30;0.73;;;;;;;6.62;100.00;147835.88;4976788;28;20225;-59
2023/12/14 00:58:45;;;;;;;0.73;0.73;;;;;;;6.61;100.00;147833.38;4971504;28;20240;-59
2023/12/14 01:01:11;;;;;;;1.00;0.67;;;;;;;6.60;100.00;147829.69;4975220;28;20701;-59
2023/12/14 01:03:38;;;;;;;1.00;0.70;;;;;;;6.64;100.00;147839.63;4972921;28;20222;-60
2023/12/14 01:06:05;;;;;;;3.53;0.60;;;;;;;6.58;100.00;147824.72;4974880;28;20697;-60
2023/12/14 01:08:31;;;;;;;1.23;0.70;;;;;;;6.57;100.00;147823.47;4971509;28;20225;-59
2023/12/14 01:10:58;;;;;;;1.30;0.90;;;;;;;6.55;100.00;147818.47;4974822;28;20240;-60
2023/12/14 01:13:24;;;;;;;2.67;0.80;;;;;;;6.56;100.00;147819.75;4977143;28;20228;-59
2023/12/14 01:15:52;;;;;;;1.90;0.80;;;;;;;6.58;100.00;147825.94;4975685;28;20237;-59
2023/12/14 01:18:19;;;;;;;1.27;1.17;;;;;;;6.56;100.00;147819.75;4975577;28;20213;-60
2023/12/14 01:20:44;;;;;;;3.37;0.80;;;;;;;6.58;100.00;147824.72;4973266;28;20239;-60
2023/12/14 01:23:11;;;;;;;1.23;0.93;;;;;;;6.51;100.00;147808.53;4975372;28;20229;-59
2023/12/14 01:25:38;;;;;;;4.40;1.00;;;;;;;6.54;100.00;147816.00;4972213;28;20317;-59
2023/12/14 01:28:04;;;;;;;4.33;1.27;;;;;;;6.56;100.00;147819.75;4974302;28;20240;-60
2023/12/14 01:30:31;;;;;;;1.43;1.07;;;;;;;6.55;100.00;147817.25;4972024;28;20260;-59
2023/12/14 01:32:59;;;;;;;2.50;1.17;;;;;;;6.53;100.00;147812.28;4972697;28;20251;-60
2023/12/14 01:35:29;;;;;;;2.40;1.20;;;;;;;6.52;100.00;147811.03;4970391;28;20229;-60
2023/12/14 01:37:56;;;;;;;2.70;1.10;;;;;;;6.55;100.00;147817.25;4977233;28;20767;-59
2023/12/14 01:40:23;;;;;;;2.33;1.10;;;;;;;6.54;100.00;147816.00;4978106;28;20237;-60
2023/12/14 01:42:49;;;;;;;1.10;0.80;;;;;;;6.56;100.00;147820.97;4973175;28;20241;-60
2023/12/14 01:45:16;;;;;;;1.67;1.27;;;;;;;6.54;100.00;147816.00;4976149;28;20214;-60
2023/12/14 01:47:43;;;;;;;1.80;1.20;;;;;;;6.50;100.00;147806.06;4972851;28;20224;-60
2023/12/14 01:50:11;;;;;;;3.33;1.43;;;;;;;6.52;100.00;147811.03;4976061;28;20236;-59
2023/12/14 01:52:37;;;;;;;4.80;1.10;;;;;;;6.53;100.00;147813.50;4978567;28;20240;-60
2023/12/14 01:55:05;;;;;;;2.33;1.27;;;;;;;6.55;100.00;147818.47;4976925;28;20240;-60
2023/12/14 01:57:31;;;;;;;3.40;1.10;;;;;;;6.55;100.00;147817.25;4966423;28;20221;-59
2023/12/14 01:59:58;;;;;;;1.93;1.20;;;;;;;6.56;100.00;147819.75;4981307;28;20234;-60
2023/12/14 02:02:25;;;;;;;3.60;1.20;;;;;;;6.59;100.00;147828.41;4980535;28;20236;-60
2023/12/14 02:05:18;;;;;;;1.87;1.20;;;;;;;6.57;100.00;147823.47;4981564;28;20600;-60
2023/12/14 02:07:44;;;;;;;1.60;1.30;;;;;;;6.58;100.00;147825.94;4978730;28;20224;-60
2023/12/14 02:10:11;;;;;;;1.10;0.83;;;;;;;6.59;100.00;147827.19;4979640;28;20877;-61
2023/12/14 02:12:37;;;;;;;2.03;1.10;;;;;;;6.58;100.00;147824.72;4976648;28;20239;-60
2023/12/14 02:15:05;;;;;;;1.20;0.70;;;;;;;6.55;100.00;147817.25;4973553;28;20248;-60
2023/12/14 02:17:32;;;;;;;2.27;0.90;;;;;;;6.51;100.00;147808.53;4977859;28;20228;-60
2023/12/14 02:20:00;;;;;;;1.50;0.87;;;;;;;6.57;100.00;147822.22;4977455;28;20259;-60
2023/12/14 02:22:28;;;;;;;1.80;1.37;;;;;;;6.50;100.00;147807.31;4977755;28;20708;-60
2023/12/14 02:24:56;;;;;;;2.10;1.40;;;;;;;6.47;100.00;147798.59;4973412;28;20244;-60
2023/12/14 02:27:22;;;;;;;2.33;1.23;;;;;;;6.47;100.00;147799.88;4980410;28;20229;-58
2023/12/14 02:29:49;;;;;;;3.40;1.30;;;;;;;6.52;100.00;147811.03;4976319;28;20240;-60
2023/12/14 02:33:06;;;;;;;2.10;1.20;;;;;;;6.50;100.00;147806.06;4979513;28;20231;-59
2023/12/14 02:35:57;;;;;;;3.67;1.33;;;;;;;6.52;100.00;147811.03;4984768;28;20598;-60
2023/12/14 02:38:24;;;;;;;2.10;1.20;;;;;;;6.48;100.00;147801.09;4977249;28;20242;-60
2023/12/14 02:40:52;;;;;;;2.00;1.50;;;;;;;6.42;100.00;147787.44;4977836;28;20594;-60
2023/12/14 02:43:19;;;;;;;2.63;2.00;;;;;;;6.43;100.00;147788.66;4975970;28;20227;-60
2023/12/14 02:45:45;;;;;;;2.90;1.63;;;;;;;6.45;100.00;147793.63;4978076;28;20582;-60
2023/12/14 02:48:12;;;;;;;3.30;1.87;;;;;;;6.43;100.00;147788.66;4975504;28;20225;-60
2023/12/14 02:50:39;;;;;;;3.13;1.80;;;;;;;6.44;100.00;147791.16;4978575;28;20244;-60
2023/12/14 02:53:05;;;;;;;3.00;2.17;;;;;;;6.45;100.00;147794.91;4977404;28;20213;-60
2023/12/14 02:55:32;;;;;;;4.23;2.10;;;;;;;6.43;100.00;147788.66;4980040;28;20245;-60
2023/12/14 02:58:00;;;;;;;2.30;2.03;;;;;;;6.46;100.00;147797.41;4968564;28;20225;-60
2023/12/14 03:00:26;;;;;;;3.10;1.67;;;;;;;6.44;100.00;147791.16;4974228;28;20241;-60
2023/12/14 03:02:54;;;;;;;1.83;1.43;;;;;;;6.47;100.00;147798.59;4977619;28;20237;-60
2023/12/14 03:05:21;;;;;;;1.60;1.30;;;;;;;6.48;100.00;147801.09;4971880;28;20237;-60
2023/12/14 03:07:47;;;;;;;1.70;1.30;;;;;;;6.49;100.00;147803.56;4978108;28;20230;-59
2023/12/14 03:10:14;;;;;;;1.93;1.30;;;;;;;6.46;100.00;147797.41;4973476;28;20327;-59
2023/12/14 03:12:40;;;;;;;1.10;0.83;;;;;;;6.47;100.00;147798.59;4927111;28;20304;-59
2023/12/14 03:15:10;;;;;;;2.40;1.43;;;;;;;6.45;100.00;147793.63;4922292;28;20226;-60
2023/12/14 03:18:03;;;;;;;1.03;0.90;;;;;;;6.44;100.00;147791.16;4894285;28;20239;-60
2023/12/14 03:20:33;;;;;;;1.60;1.03;;;;;;;6.44;100.00;147791.16;4878512;28;20238;-60
2023/12/14 03:22:59;;;;;;;1.20;0.80;;;;;;;6.46;100.00;147797.41;4978153;28;20824;-59
2023/12/14 03:25:26;;;;;;;1.03;0.90;;;;;;;6.46;100.00;147796.13;4976105;28;20223;-59
2023/12/14 03:28:17;;;;;;;2.73;1.30;;;;;;;6.46;100.00;147797.41;4945613;28;20234;-59
2023/12/14 03:30:45;;;;;;;4.20;2.27;;;;;;;6.40;100.00;147781.22;4948789;28;20315;-59
2023/12/14 03:33:12;;;;;;;3.97;2.77;;;;;;;6.42;100.00;147786.19;4937955;28;20239;-60
2023/12/14 03:35:41;;;;;;;4.20;2.47;;;;;;;6.44;100.00;147791.16;4977315;28;20922;-59
2023/12/14 03:38:08;;;;;;;4.43;2.73;;;;;;;6.44;100.00;147791.16;4976551;28;20683;-59
2023/12/14 03:40:34;;;;;;;5.40;3.70;;;;;;;6.36;100.00;147772.56;4979252;28;20684;-58
2023/12/14 03:43:01;;;;;;;4.20;3.00;;;;;;;6.40;100.00;147781.22;4977237;28;20336;-59
2023/12/14 03:45:28;;;;;;;4.90;3.93;;;;;;;6.42;100.00;147787.44;4981569;28;20225;-59
2023/12/14 03:47:56;;;;;;;5.57;4.03;;;;;;;6.46;100.00;147796.13;4979126;28;20226;-59
2023/12/14 03:50:22;;;;;;;6.60;4.07;;;;;;;6.46;100.00;147796.13;4975688;28;20241;-59
2023/12/14 03:52:49;;;;;;;8.17;4.80;;;;;;;6.48;100.00;147801.09;4976343;28;20233;-59
2023/12/14 03:55:16;;;;;;;10.40;5.33;;;;;;;6.51;100.00;147808.53;4970804;28;20225;-59
2023/12/14 03:57:43;;;;;;;7.40;4.80;;;;;;;6.52;100.00;147809.81;4976602;28;20223;-59
2023/12/14 04:00:12;;;;;;;11.27;6.30;;;;;;;6.49;100.00;147803.56;4960351;28;20737;-59
2023/12/14 04:02:39;;;;;;;10.50;5.93;;;;;;;6.55;100.00;147818.47;4973633;28;20261;-59
2023/12/14 04:05:08;;;;;;;11.63;6.23;;;;;;;6.53;100.00;147812.28;4970265;28;20230;-59
2023/12/14 04:07:35;;;;;;;11.00;7.00;;;;;;;6.54;100.00;147816.00;4974496;28;20239;-59
2023/12/14 04:10:02;;;;;;;12.20;7.83;;;;;;;6.51;100.00;147808.53;4975422;28;20260;-59
2023/12/14 04:12:29;;;;;;;14.50;7.80;;;;;;;6.46;100.00;147797.41;4974446;28;20237;-59
2023/12/14 04:14:55;;;;;;;13.03;7.40;;;;;;;6.48;100.00;147801.09;4975930;28;20236;-59
2023/12/14 04:17:22;;;;;;;12.77;8.80;;;;;;;6.41;100.00;147784.97;4970643;28;20233;-59
2023/12/14 04:19:48;;;;;;;14.70;9.40;;;;;;;6.44;100.00;147791.16;4975782;28;20234;-59
2023/12/14 04:22:16;;;;;;;12.63;8.93;;;;;;;6.43;100.00;147789.94;4965474;28;20244;-59
2023/12/14 04:24:43;;;;;;;17.03;9.27;;;;;;;6.48;100.00;147801.09;4978489;28;20240;-60
2023/12/14 04:27:09;;;;;;;16.57;9.43;;;;;;;6.49;100.00;147804.84;4973727;28;20771;-59
2023/12/14 04:29:36;;;;;;;16.33;9.40;;;;;;;6.48;100.00;147801.09;4974201;28;20236;-59
2023/12/14 04:32:03;;;;;;;16.47;9.73;;;;;;;6.46;100.00;147797.41;5254899;23;20229;-56
2023/12/14 04:34:29;;;;;;;19.53;11.10;;;;;;;6.48;100.00;147801.09;5082741;28;20307;-60
2023/12/14 04:36:57;;;;;;;21.60;10.43;;;;;;;6.48;100.00;147802.38;5084078;28;20225;-60
2023/12/14 04:39:25;;;;;;;20.80;11.20;;;;;;;6.46;100.00;147796.13;5080811;28;20288;-57
2023/12/14 04:41:53;;;;;;;17.37;10.70;;;;;;;6.49;100.00;147803.56;5073664;28;20612;-58
2023/12/14 04:44:21;;;;;;;16.37;10.77;;;;;;;6.48;100.00;147801.09;5063501;28;20594;-59
2023/12/14 04:46:47;;;;;;;18.15;11.80;;;;;;;6.46;100.00;147796.13;5063557;28;20473;-59
2023/12/14 04:49:14;;;;;;;16.17;8.97;;;;;;;6.49;100.00;147804.84;5061572;28;20550;-58
2023/12/14 04:51:41;;;;;;;16.97;9.83;;;;;;;6.44;100.00;147792.44;5065143;28;20230;-58
2023/12/14 04:54:08;;;;;;;17.77;9.30;;;;;;;6.40;100.00;147781.22;5062157;28;20219;-59
2023/12/14 04:56:36;;;;;;;18.27;8.77;;;;;;;6.36;100.00;147772.56;5065374;28;20226;-58
2023/12/14 04:59:02;;;;;;;14.17;8.63;;;;;;;6.38;100.00;147777.50;5059794;28;20241;-59
2023/12/14 05:01:29;;;;;;;12.07;7.30;;;;;;;6.38;100.00;147776.25;5067263;28;20232;-58
2023/12/14 05:03:56;;;;;;;12.40;6.93;;;;;;;6.35;100.00;147770.06;5064755;28;20237;-58
2023/12/14 05:06:22;;;;;;;14.50;6.53;;;;;;;6.30;100.00;147757.66;5060348;28;20238;-58
2023/12/14 05:08:49;;;;;;;12.43;7.33;;;;;;;6.31;100.00;147760.13;5065611;28;20344;-59
2023/12/14 05:11:16;;;;;;;14.67;7.37;;;;;;;6.35;100.00;147770.06;5064210;28;20225;-57
2023/12/14 05:13:44;;;;;;;13.17;8.03;;;;;;;6.37;100.00;147773.78;5064345;28;20218;-58
2023/12/14 05:16:15;;;;;;;13.67;7.73;;;;;;;6.35;100.00;147771.34;5044453;28;20308;-56
2023/12/14 05:18:42;;;;;;;11.00;7.27;;;;;;;6.38;100.00;147777.50;5065036;28;20229;-59
2023/12/14 05:21:08;;;;;;;18.27;8.30;;;;;;;6.36;100.00;147772.56;5060908;28;20563;-59
2023/12/14 05:23:35;;;;;;;14.97;8.10;;;;;;;6.35;100.00;147770.06;5064447;28;20731;-58
2023/12/14 05:26:01;;;;;;;17.17;9.43;;;;;;;6.38;100.00;147777.50;5063656;28;20300;-58
2023/12/14 05:28:28;;;;;;;16.73;8.97;;;;;;;6.40;100.00;147781.22;5062348;28;20223;-56
2023/12/14 05:30:56;;;;;;;16.90;9.30;;;;;;;6.43;100.00;147788.66;5064389;28;20270;-59
2023/12/14 05:33:23;;;;;;;16.43;8.60;;;;;;;6.45;100.00;147793.63;5062118;28;20242;-58
2023/12/14 05:35:49;;;;;;;15.73;8.40;;;;;;;6.45;100.00;147794.91;5064744;28;20226;-59
2023/12/14 05:38:16;;;;;;;13.17;7.90;;;;;;;6.44;100.00;147791.16;5062456;28;20229;-57
2023/12/14 05:40:43;;;;;;;13.87;8.30;;;;;;;6.40;100.00;147781.22;5046708;28;20214;-57
2023/12/14 05:43:11;;;;;;;14.77;8.00;;;;;;;6.43;100.00;147789.94;5057303;28;20255;-59
2023/12/14 05:45:37;;;;;;;16.00;9.90;;;;;;;6.45;100.00;147793.63;5062532;28;20889;-58
2023/12/14 05:48:06;;;;;;;15.03;8.10;;;;;;;6.44;100.00;147792.44;5061720;28;20222;-58
2023/12/14 05:50:32;;;;;;;12.43;7.37;;;;;;;6.49;100.00;147803.56;5063931;28;20227;-59
2023/12/14 05:52:59;;;;;;;13.43;7.57;;;;;;;6.42;100.00;147786.19;5066023;28;20245;-58
2023/12/14 05:55:26;;;;;;;12.70;7.33;;;;;;;6.45;100.00;147794.91;5062732;28;20230;-58
2023/12/14 05:57:54;;;;;;;13.50;7.17;;;;;;;6.45;100.00;147793.63;5064212;28;20236;-57
2023/12/14 06:00:21;;;;;;;14.87;10.67;;;;;;;6.45;100.00;147793.63;5061436;28;20222;-58
2023/12/14 06:02:48;;;;;;;13.70;10.27;;;;;;;6.44;100.00;147791.16;5063491;28;20230;-58
2023/12/14 06:05:16;;;;;;;7.93;5.50;;;;;;;6.45;100.00;147794.91;5063320;28;20733;-58
2023/12/14 06:07:42;;;;;;;9.77;6.13;;;;;;;6.44;100.00;147792.44;5065352;28;20232;-58
2023/12/14 06:10:11;;;;;;;12.93;7.23;;;;;;;6.45;100.00;147793.63;5043759;28;20594;-59
2023/12/14 06:12:37;;;;;;;10.50;6.60;;;;;;;6.44;100.00;147791.16;5048096;28;20234;-58
2023/12/14 06:15:05;;;;;;;12.17;8.03;;;;;;;6.47;100.00;147798.59;5058670;28;20215;-59
2023/12/14 06:17:33;;;;;;;18.97;8.90;;;;;;;6.45;100.00;147793.63;5063013;28;20584;-58
2023/12/14 06:20:00;;;;;;;14.70;8.57;;;;;;;6.43;100.00;147788.66;5062048;28;20242;-58
2023/12/14 06:22:28;;;;;;;14.70;8.63;;;;;;;6.40;100.00;147782.47;5062317;28;20744;-58
2023/12/14 06:24:54;;;;;;;21.63;11.90;;;;;;;6.43;100.00;147789.94;5062255;28;20229;-58
2023/12/14 06:27:23;;;;;;;17.97;10.50;;;;;;;6.42;100.00;147786.19;5060394;28;20234;-58
2023/12/14 06:29:49;;;;;;;16.17;9.20;;;;;;;6.43;100.00;147788.66;5047467;28;20224;-58
2023/12/14 06:32:16;;;;;;;14.57;8.43;;;;;;;6.41;100.00;147784.97;5060387;28;20694;-58
2023/12/14 06:34:42;;;;;;;14.80;9.33;;;;;;;6.38;100.00;147777.50;5062300;28;20215;-57
2023/12/14 06:37:09;;;;;;;14.67;9.00;;;;;;;6.43;100.00;147788.66;5062237;28;20327;-58
2023/12/14 06:39:37;;;;;;;13.50;9.07;;;;;;;6.43;100.00;147788.66;5051266;28;20588;-58
2023/12/14 06:42:04;;;;;;;16.70;8.87;;;;;;;6.46;100.00;147796.13;5063220;28;20226;-58
2023/12/14 06:44:31;;;;;;;13.43;8.03;;;;;;;6.42;100.00;147786.19;5049959;28;20226;-59
2023/12/14 06:46:58;;;;;;;14.73;8.53;;;;;;;6.41;100.00;147784.97;5068188;28;20210;-58
2023/12/14 06:49:24;;;;;;;13.87;8.33;;;;;;;6.43;100.00;147789.94;5066078;28;20260;-58
2023/12/14 06:51:51;;;;;;;9.90;5.80;;;;;;;6.40;100.00;147782.47;5067969;28;20291;-58
2023/12/14 06:54:18;;;;;;;11.77;6.40;;;;;;;6.43;100.00;147788.66;5064671;28;20225;-59
2023/12/14 06:56:46;;;;;;;8.60;5.73;;;;;;;6.44;100.00;147791.16;5068339;28;20230;-58
2023/12/14 06:59:12;;;;;;;8.20;5.40;;;;;;;6.45;100.00;147793.63;5050639;28;20223;-58
2023/12/14 07:01:39;;;;;;;9.38;5.93;;;;;;;6.44;100.00;147792.44;5068317;28;20422;-57
2023/12/14 07:04:07;;;;;;;8.17;5.47;;;;;;;6.47;100.00;147799.88;5064214;28;20226;-57
2023/12/14 07:06:35;;;;;;;6.93;4.77;;;;;;;6.49;100.00;147803.56;5068660;28;20284;-56
2023/12/14 07:09:01;;;;;;;10.00;5.17;;;;;;;6.41;100.00;147784.97;5067086;28;20222;-57
2023/12/14 07:11:29;;;;;;;6.70;4.60;;;;;;;6.44;100.00;147792.44;5063219;28;20234;-57
2023/12/14 07:13:56;;;;;;;9.37;5.93;;;;;;;6.43;100.00;147788.66;5064905;28;20220;-57
2023/12/14 07:16:23;;;;;;;10.33;5.67;;;;;;;6.48;100.00;147801.09;5063950;28;20223;-57
2023/12/14 07:18:50;;;;;;;10.47;6.27;;;;;;;6.47;100.00;147799.88;5048441;28;20219;-58
2023/12/14 07:21:16;;;;;;;12.40;7.53;;;;;;;6.43;100.00;147788.66;5063989;28;20233;-57
2023/12/14 07:23:43;;;;;;;14.50;8.23;;;;;;;6.44;100.00;147791.16;5066656;28;20220;-57
2023/12/14 07:26:09;;;;;;;12.60;8.40;;;;;;;6.44;100.00;147792.44;5063901;28;20233;-57
2023/12/14 07:28:36;;;;;;;14.33;8.77;;;;;;;6.40;100.00;147782.47;5067945;28;20241;-58
2023/12/14 07:31:05;;;;;;;14.10;9.10;;;;;;;6.46;100.00;147796.13;5050468;28;20215;-56
2023/12/14 07:33:31;;;;;;;14.30;9.40;;;;;;;6.39;100.00;147780.00;5064589;28;20225;-57
2023/12/14 07:35:58;;;;;;;15.50;9.53;;;;;;;6.37;100.00;147773.78;5066442;28;20245;-57
2023/12/14 07:38:24;;;;;;;19.40;11.43;;;;;;;6.43;100.00;147788.66;5064931;28;20245;-57
2023/12/14 07:40:52;;;;;;;18.47;11.87;;;;;;;6.41;100.00;147783.72;5064383;28;20224;-58
2023/12/14 07:43:18;;;;;;;15.20;10.00;;;;;;;6.44;100.00;147792.44;5063822;28;20222;-55
2023/12/14 07:45:46;;;;;;;14.00;9.00;;;;;;;6.45;100.00;147793.63;5064809;28;20229;-57
2023/12/14 07:48:14;;;;;;;15.63;10.03;;;;;;;6.45;100.00;147793.63;5065685;28;20226;-57
2023/12/14 07:50:40;;;;;;;15.37;8.83;;;;;;;6.46;100.00;147796.13;5067183;28;20249;-57
2023/12/14 07:53:07;;;;;;;13.33;9.40;;;;;;;6.50;100.00;147807.31;5045717;28;20849;-56
2023/12/14 07:55:34;;;;;;;14.10;8.73;;;;;;;6.46;100.00;147796.13;5065853;28;20249;-57
2023/12/14 07:58:00;;;;;;;12.93;8.60;;;;;;;6.47;100.00;147799.88;5065490;28;20230;-57
2023/12/14 08:00:27;;;;;;;16.00;8.17;;;;;;;6.47;100.00;147799.88;5062187;28;20304;-55
2023/12/14 08:02:55;;;;;;;13.60;8.67;;;;;;;6.49;100.00;147803.56;5065481;28;20240;-58
2023/12/14 08:05:23;;;;;;;14.23;8.10;;;;;;;6.53;100.00;147813.50;5062881;28;20578;-57
2023/12/14 08:07:52;;;;;;;18.50;8.03;;;;;;;6.57;100.00;147823.47;5065720;28;20229;-58
2023/12/14 08:10:18;;;;;;;11.07;6.90;;;;;;;6.56;100.00;147820.97;5063663;28;20754;-58
2023/12/14 08:12:47;;;;;;;14.57;9.03;;;;;;;6.60;100.00;147830.91;5066564;28;20226;-57
2023/12/14 08:15:13;;;;;;;11.00;7.00;;;;;;;6.61;100.00;147833.38;5061641;28;20218;-58
2023/12/14 08:17:41;;;;;;;16.27;11.27;;;;;;;6.65;100.00;147843.31;5064502;28;20249;-58
2023/12/14 08:20:10;;;;;;;16.77;10.80;;;;;;;6.66;100.00;147844.59;5052738;28;20255;-58
2023/12/14 08:22:43;;;;;;;17.43;12.47;;;;;;;6.63;100.00;147837.13;5065405;28;20319;-58
2023/12/14 08:25:11;;;;;;;25.47;16.67;;;;;;;6.67;100.00;147845.81;5062626;28;20670;-58
2023/12/14 08:27:38;;;;;;;19.03;14.57;;;;;;;6.70;100.00;147853.25;5065284;28;20222;-58
2023/12/14 08:30:06;;;;;;;15.37;9.00;;;;;;;6.65;100.00;147843.31;5061017;28;20215;-57
2023/12/14 08:32:33;;;;;;;22.70;14.20;;;;;;;6.73;100.00;147860.72;5065794;28;20590;-58
2023/12/14 08:34:59;;;;;;;32.10;19.30;;;;;;;6.74;100.00;147864.47;5064405;28;20239;-55
2023/12/14 08:37:26;;;;;;;14.80;8.77;;;;;;;6.76;100.00;147868.16;5044664;28;20226;-57
2023/12/14 08:39:55;;;;;;;14.37;10.73;;;;;;;6.75;100.00;147866.97;5064596;28;20230;-58
2023/12/14 08:42:22;;;;;;;13.83;9.77;;;;;;;6.77;100.00;147870.66;5060097;28;20581;-58
2023/12/14 08:44:49;;;;;;;14.20;8.57;;;;;;;6.82;100.00;147881.88;5064742;28;20214;-58
2023/12/14 08:47:15;;;;;;;53.80;40.53;;;;;;;6.71;100.00;147855.75;5062871;28;20230;-58
2023/12/14 08:49:42;;;;;;;16.70;9.50;;;;;;;6.81;100.00;147879.38;5064568;28;20552;-55
2023/12/14 08:52:11;;;;;;;14.10;10.10;;;;;;;6.75;100.00;147866.97;5061137;28;20217;-58
2023/12/14 08:54:37;;;;;;;27.70;19.17;;;;;;;6.74;100.00;147863.19;5063278;28;20317;-57
2023/12/14 08:57:06;;;;;;;27.57;16.33;;;;;;;6.69;100.00;147850.78;5061977;28;20215;-56
2023/12/14 08:59:32;;;;;;;19.30;11.00;;;;;;;6.73;100.00;147862.00;5061189;28;20234;-58
2023/12/14 09:01:59;;;;;;;30.03;20.83;;;;;;;6.69;100.00;147850.78;5062165;28;20231;-57
2023/12/14 09:04:25;;;;;;;29.20;21.33;;;;;;;6.71;100.00;147855.75;5060531;28;20223;-60
2023/12/14 09:06:53;;;;;;;19.30;12.03;;;;;;;6.70;100.00;147854.53;5063402;28;20222;-56
2023/12/14 09:09:54;;;;;;;20.23;13.23;;;;;;;6.75;100.00;147866.97;5064587;28;20218;-57
2023/12/14 09:12:21;;;;;;;17.30;11.73;;;;;;;6.79;100.00;147876.91;5058741;28;20214;-57
2023/12/14 09:14:48;;;;;;;20.50;12.17;;;;;;;6.74;100.00;147863.19;5064219;28;20710;-57
2023/12/14 09:17:15;;;;;;;21.33;14.93;;;;;;;6.78;100.00;147874.41;5064214;28;20607;-57
2023/12/14 09:19:42;;;;;;;28.60;16.93;;;;;;;6.85;100.00;147889.31;5063643;28;20330;-57
2023/12/14 09:22:09;;;;;;;72.37;48.37;;;;;;;6.91;100.00;147905.44;5060568;28;20215;-56
2023/12/14 09:24:36;;;;;;;22.00;14.20;;;;;;;6.92;100.00;147907.94;5064500;28;20831;-57
2023/12/14 09:27:02;;;;;;;77.87;45.93;;;;;;;6.94;100.00;147911.63;5063810;28;20377;-56
2023/12/14 09:29:30;;;;;;;31.33;21.70;;;;;;;7.01;100.00;147927.81;5062176;28;20238;-54
2023/12/14 09:31:57;;;;;;;16.50;9.53;;;;;;;7.12;100.00;147953.88;5063568;28;20285;-56
2023/12/14 09:34:24;;;;;;;15.83;10.27;;;;;;;7.07;100.00;147943.94;5060912;28;20249;-54
2023/12/14 09:36:50;;;;;;;16.57;11.17;;;;;;;7.13;100.00;147957.63;5064885;28;20234;-56
2023/12/14 09:39:19;;;;;;;14.70;9.80;;;;;;;7.15;100.00;147962.59;5046088;28;20874;-54
2023/12/14 09:41:46;;;;;;;16.43;10.00;;;;;;;7.29;100.00;147996.13;5065497;28;20261;-56
2023/12/14 09:44:13;;;;;;;13.63;9.10;;;;;;;7.39;100.00;148021.00;5043583;28;20242;-56
2023/12/14 09:46:48;;;;;;;15.30;11.82;;;;;;;7.30;100.00;147997.41;5064766;28;20430;-56
2023/12/14 09:49:16;;;;;;;14.37;10.40;;;;;;;7.43;100.00;148029.66;5053361;28;20219;-56
2023/12/14 09:51:43;;;;;;;10.20;7.47;;;;;;;7.49;100.00;148044.59;5063413;28;20253;-56
2023/12/14 09:54:09;;;;;;;12.10;8.40;;;;;;;7.52;100.00;148050.81;5061614;28;20211;-55
2023/12/14 09:56:36;;;;;;;11.63;7.90;;;;;;;7.57;100.00;148061.97;5065751;28;20330;-56
2023/12/14 09:59:05;;;;;;;14.33;8.20;;;;;;;7.60;100.00;148069.44;5060466;28;20324;-55
2023/12/14 10:01:31;;;;;;;12.77;8.80;;;;;;;7.68;100.00;148090.59;5061686;28;20764;-55
2023/12/14 10:04:13;;;;;;;13.73;8.30;;;;;;;7.72;100.00;148099.28;5062673;28;20492;-54
2023/12/14 10:06:40;;;;;;;11.50;7.77;;;;;;;7.70;100.00;148094.31;5061632;28;20660;-55
2023/12/14 10:09:09;;;;;;;12.60;8.80;;;;;;;7.75;100.00;148105.53;5060352;28;20229;-54
2023/12/14 10:11:36;;;;;;;18.00;12.27;;;;;;;7.73;100.00;148101.75;5065008;28;20298;-54
2023/12/14 10:14:03;;;;;;;16.93;11.73;;;;;;;7.51;100.00;148048.34;5066660;28;20320;-56
2023/12/14 10:16:31;;;;;;;13.53;9.47;;;;;;;7.66;100.00;148085.63;5066258;28;20228;-56
2023/12/14 10:18:59;;;;;;;14.90;9.77;;;;;;;7.62;100.00;148075.69;5065699;28;20230;-54
2023/12/14 10:21:28;;;;;;;17.70;12.57;;;;;;;7.73;100.00;148100.56;5064656;28;20310;-55
2023/12/14 10:23:56;;;;;;;21.67;14.17;;;;;;;7.85;100.00;148129.13;5068809;28;20226;-56
2023/12/14 10:26:25;;;;;;;13.33;9.17;;;;;;;7.94;100.00;148152.75;5065280;28;20300;-57
2023/12/14 10:28:51;;;;;;;17.73;12.37;;;;;;;7.96;100.00;148157.69;5070778;28;20317;-56
2023/12/14 10:31:18;;;;;;;16.27;10.63;;;;;;;7.99;100.00;148163.94;5065642;28;20776;-56
2023/12/14 10:33:45;;;;;;;13.47;9.30;;;;;;;7.87;100.00;148134.09;5066615;28;20243;-55
2023/12/14 10:36:13;;;;;;;20.77;15.23;;;;;;;7.84;100.00;148127.91;5064305;28;20225;-54
2023/12/14 10:38:44;;;;;;;26.67;18.33;;;;;;;7.94;100.00;148151.50;5066881;28;20243;-57
2023/12/14 10:41:14;;;;;;;18.57;13.27;;;;;;;7.82;100.00;148124.16;5066251;28;20569;-56
2023/12/14 10:43:43;;;;;;;20.50;13.43;;;;;;;8.01;100.00;148168.91;5068191;28;20225;-56
2023/12/14 10:46:11;;;;;;;29.53;17.07;;;;;;;8.05;100.00;148177.59;5064976;28;20211;-56
2023/12/14 10:48:38;;;;;;;13.83;9.67;;;;;;;8.13;100.00;148198.75;5067168;28;20229;-56
2023/12/14 10:51:05;;;;;;;11.17;8.70;;;;;;;8.24;100.00;148223.63;5069020;28;20708;-55
2023/12/14 10:53:33;;;;;;;11.47;7.90;;;;;;;8.27;100.00;148231.09;5065603;28;20257;-56
2023/12/14 10:56:06;;;;;;;12.07;8.03;;;;;;;8.24;100.00;148223.63;5065924;28;20230;-56
2023/12/14 10:58:47;;;;;;;13.67;8.07;;;;;;;8.16;100.00;148204.94;5064866;28;20257;-55
2023/12/14 11:01:15;;;;;;;13.43;8.63;;;;;;;8.31;100.00;148239.75;5063774;28;20230;-54
2023/12/14 11:03:43;;;;;;;11.67;8.30;;;;;;;8.44;100.00;148272.09;5066827;28;20747;-55
2023/12/14 11:06:30;;;;;;;12.37;8.37;;;;;;;8.45;100.00;148273.38;5064806;28;20289;-55
2023/12/14 11:08:58;;;;;;;13.57;8.67;;;;;;;8.34;100.00;148247.22;5068535;28;20759;-54
2023/12/14 11:11:29;;;;;;;13.87;8.30;;;;;;;8.51;100.00;148288.28;5064349;28;20226;-54
2023/12/14 11:13:56;;;;;;;14.63;8.87;;;;;;;8.44;100.00;148270.88;5062871;28;20227;-54
2023/12/14 11:16:23;;;;;;;19.20;9.47;;;;;;;8.46;100.00;148275.84;5062666;28;20232;-56
2023/12/14 11:19:09;;;;;;;12.33;8.17;;;;;;;8.23;100.00;148221.13;5066488;28;20757;-53
2023/12/14 11:21:37;;;;;;;12.50;7.50;;;;;;;8.38;100.00;148257.19;5064221;28;20589;-54
2023/12/14 11:24:04;;;;;;;12.83;8.00;;;;;;;8.37;100.00;148255.97;5067058;28;20238;-56
2023/12/14 11:26:31;;;;;;;14.20;8.93;;;;;;;8.21;100.00;148217.38;5065733;28;20239;-56